sensor_id;sensor_type;location;lat;lon;timestamp;P1;durP1;ratioP1;P2;durP2;ratioP2
50681;SDS011;36779;52.168;20.878;2024-01-30T00:01:56;48.70;;;14.90;;
50681;SDS011;36779;52.168;20.878;2024-01-30T00:04:29;48.10;;;16.10;;
50681;SDS011;36779;52.168;20.878;2024-01-30T00:07:04;46.60;;;15.00;;
50681;SDS011;36779;52.168;20.878;2024-01-30T00:09:37;43.10;;;15.00;;
50681;SDS011;36779;52.168;20.878;2024-01-30T00:12:10;41.80;;;14.30;;
50681;SDS011;36779;52.168;20.878;2024-01-30T00:14:43;39.00;;;14.10;;
50681;SDS011;36779;52.168;20.878;2024-01-30T00:17:15;42.90;;;14.90;;
50681;SDS011;36779;52.168;20.878;2024-01-30T00:19:48;38.20;;;14.20;;
50681;SDS011;36779;52.168;20.878;2024-01-30T00:22:21;43.40;;;14.40;;
50681;SDS011;36779;52.168;20.878;2024-01-30T00:24:53;39.60;;;14.10;;
50681;SDS011;36779;52.168;20.878;2024-01-30T00:27:26;41.60;;;14.10;;
50681;SDS011;36779;52.168;20.878;2024-01-30T00:29:58;37.50;;;13.50;;
50681;SDS011;36779;52.168;20.878;2024-01-30T00:32:31;37.90;;;13.70;;
50681;SDS011;36779;52.168;20.878;2024-01-30T00:35:04;38.10;;;13.70;;
50681;SDS011;36779;52.168;20.878;2024-01-30T00:37:39;42.50;;;13.50;;
50681;SDS011;36779;52.168;20.878;2024-01-30T00:40:11;41.20;;;14.70;;
50681;SDS011;36779;52.168;20.878;2024-01-30T00:42:45;44.50;;;14.20;;
50681;SDS011;36779;52.168;20.878;2024-01-30T00:45:17;43.60;;;14.00;;
50681;SDS011;36779;52.168;20.878;2024-01-30T00:47:49;45.30;;;14.70;;
50681;SDS011;36779;52.168;20.878;2024-01-30T00:50:22;43.40;;;13.90;;
50681;SDS011;36779;52.168;20.878;2024-01-30T00:52:54;38.80;;;13.70;;
50681;SDS011;36779;52.168;20.878;2024-01-30T00:55:27;36.10;;;13.30;;
50681;SDS011;36779;52.168;20.878;2024-01-30T00:58:00;39.20;;;14.60;;
50681;SDS011;36779;52.168;20.878;2024-01-30T01:00:33;38.70;;;13.10;;
50681;SDS011;36779;52.168;20.878;2024-01-30T01:03:06;43.90;;;14.80;;
50681;SDS011;36779;52.168;20.878;2024-01-30T01:05:39;41.60;;;13.90;;
50681;SDS011;36779;52.168;20.878;2024-01-30T01:08:11;37.60;;;12.00;;
50681;SDS011;36779;52.168;20.878;2024-01-30T01:10:46;36.20;;;12.40;;
50681;SDS011;36779;52.168;20.878;2024-01-30T01:13:20;37.00;;;12.50;;
50681;SDS011;36779;52.168;20.878;2024-01-30T01:15:53;44.20;;;13.50;;
50681;SDS011;36779;52.168;20.878;2024-01-30T01:18:25;40.00;;;13.50;;
50681;SDS011;36779;52.168;20.878;2024-01-30T01:20:58;41.00;;;13.50;;
50681;SDS011;36779;52.168;20.878;2024-01-30T01:23:30;38.50;;;13.80;;
50681;SDS011;36779;52.168;20.878;2024-01-30T01:26:04;38.10;;;13.30;;
50681;SDS011;36779;52.168;20.878;2024-01-30T01:28:40;40.00;;;13.30;;
50681;SDS011;36779;52.168;20.878;2024-01-30T01:31:15;45.80;;;14.70;;
50681;SDS011;36779;52.168;20.878;2024-01-30T01:33:47;39.50;;;14.20;;
50681;SDS011;36779;52.168;20.878;2024-01-30T01:36:20;41.20;;;14.20;;
50681;SDS011;36779;52.168;20.878;2024-01-30T01:38:53;38.20;;;12.50;;
50681;SDS011;36779;52.168;20.878;2024-01-30T01:41:29;40.60;;;13.20;;
50681;SDS011;36779;52.168;20.878;2024-01-30T01:44:02;32.90;;;12.70;;
50681;SDS011;36779;52.168;20.878;2024-01-30T01:46:35;37.10;;;13.10;;
50681;SDS011;36779;52.168;20.878;2024-01-30T01:49:09;40.10;;;13.90;;
50681;SDS011;36779;52.168;20.878;2024-01-30T01:51:42;37.70;;;13.90;;
50681;SDS011;36779;52.168;20.878;2024-01-30T01:54:17;46.20;;;14.80;;
50681;SDS011;36779;52.168;20.878;2024-01-30T01:56:50;38.70;;;14.20;;
50681;SDS011;36779;52.168;20.878;2024-01-30T01:59:23;35.60;;;13.70;;
50681;SDS011;36779;52.168;20.878;2024-01-30T02:01:56;39.60;;;13.20;;
50681;SDS011;36779;52.168;20.878;2024-01-30T02:04:29;38.40;;;12.80;;
50681;SDS011;36779;52.168;20.878;2024-01-30T02:07:01;34.80;;;12.80;;
50681;SDS011;36779;52.168;20.878;2024-01-30T02:09:34;41.70;;;13.40;;
50681;SDS011;36779;52.168;20.878;2024-01-30T02:12:06;39.00;;;12.90;;
50681;SDS011;36779;52.168;20.878;2024-01-30T02:14:45;33.30;;;12.90;;
50681;SDS011;36779;52.168;20.878;2024-01-30T02:17:18;36.90;;;13.40;;
50681;SDS011;36779;52.168;20.878;2024-01-30T02:19:52;35.90;;;12.20;;
50681;SDS011;36779;52.168;20.878;2024-01-30T02:22:25;41.40;;;13.30;;
50681;SDS011;36779;52.168;20.878;2024-01-30T02:24:58;36.00;;;12.40;;
50681;SDS011;36779;52.168;20.878;2024-01-30T02:27:31;42.90;;;12.40;;
50681;SDS011;36779;52.168;20.878;2024-01-30T02:30:04;44.70;;;14.20;;
50681;SDS011;36779;52.168;20.878;2024-01-30T02:32:37;37.30;;;13.40;;
50681;SDS011;36779;52.168;20.878;2024-01-30T02:35:10;43.30;;;13.60;;
50681;SDS011;36779;52.168;20.878;2024-01-30T02:37:43;35.40;;;12.20;;
50681;SDS011;36779;52.168;20.878;2024-01-30T02:40:15;41.70;;;13.40;;
50681;SDS011;36779;52.168;20.878;2024-01-30T02:42:47;40.20;;;13.20;;
50681;SDS011;36779;52.168;20.878;2024-01-30T02:45:21;41.10;;;12.90;;
50681;SDS011;36779;52.168;20.878;2024-01-30T02:47:53;34.70;;;12.60;;
50681;SDS011;36779;52.168;20.878;2024-01-30T02:50:26;38.90;;;12.80;;
50681;SDS011;36779;52.168;20.878;2024-01-30T02:52:58;44.50;;;13.70;;
50681;SDS011;36779;52.168;20.878;2024-01-30T02:55:30;34.70;;;12.30;;
50681;SDS011;36779;52.168;20.878;2024-01-30T02:58:04;35.40;;;12.40;;
50681;SDS011;36779;52.168;20.878;2024-01-30T03:00:37;37.70;;;12.20;;
50681;SDS011;36779;52.168;20.878;2024-01-30T03:03:09;32.90;;;11.70;;
50681;SDS011;36779;52.168;20.878;2024-01-30T03:05:42;41.10;;;13.80;;
50681;SDS011;36779;52.168;20.878;2024-01-30T03:08:14;43.70;;;13.20;;
50681;SDS011;36779;52.168;20.878;2024-01-30T03:10:52;33.20;;;12.40;;
50681;SDS011;36779;52.168;20.878;2024-01-30T03:13:24;35.10;;;12.70;;
50681;SDS011;36779;52.168;20.878;2024-01-30T03:15:57;43.90;;;13.30;;
50681;SDS011;36779;52.168;20.878;2024-01-30T03:18:29;40.70;;;13.20;;
50681;SDS011;36779;52.168;20.878;2024-01-30T03:21:02;37.50;;;11.90;;
50681;SDS011;36779;52.168;20.878;2024-01-30T03:23:35;34.40;;;12.90;;
50681;SDS011;36779;52.168;20.878;2024-01-30T03:26:07;37.20;;;13.60;;
50681;SDS011;36779;52.168;20.878;2024-01-30T03:28:42;32.70;;;11.80;;
50681;SDS011;36779;52.168;20.878;2024-01-30T03:31:16;34.10;;;12.90;;
50681;SDS011;36779;52.168;20.878;2024-01-30T03:33:49;34.30;;;13.00;;
50681;SDS011;36779;52.168;20.878;2024-01-30T03:36:21;33.70;;;12.60;;
50681;SDS011;36779;52.168;20.878;2024-01-30T03:38:54;37.50;;;11.90;;
50681;SDS011;36779;52.168;20.878;2024-01-30T03:41:26;36.10;;;12.30;;
50681;SDS011;36779;52.168;20.878;2024-01-30T03:43:58;38.70;;;12.50;;
50681;SDS011;36779;52.168;20.878;2024-01-30T03:46:30;39.50;;;14.00;;
50681;SDS011;36779;52.168;20.878;2024-01-30T03:49:04;43.70;;;13.90;;
50681;SDS011;36779;52.168;20.878;2024-01-30T03:51:36;40.10;;;13.00;;
50681;SDS011;36779;52.168;20.878;2024-01-30T03:54:09;33.80;;;11.30;;
50681;SDS011;36779;52.168;20.878;2024-01-30T03:56:41;37.40;;;12.50;;
50681;SDS011;36779;52.168;20.878;2024-01-30T03:59:13;33.60;;;11.80;;
50681;SDS011;36779;52.168;20.878;2024-01-30T04:01:47;29.40;;;10.70;;
50681;SDS011;36779;52.168;20.878;2024-01-30T04:04:19;38.70;;;13.40;;
50681;SDS011;36779;52.168;20.878;2024-01-30T04:06:53;38.50;;;12.70;;
50681;SDS011;36779;52.168;20.878;2024-01-30T04:09:25;38.90;;;13.30;;
50681;SDS011;36779;52.168;20.878;2024-01-30T04:11:58;28.80;;;13.10;;
50681;SDS011;36779;52.168;20.878;2024-01-30T04:14:32;34.30;;;11.80;;
50681;SDS011;36779;52.168;20.878;2024-01-30T04:17:06;35.70;;;12.20;;
50681;SDS011;36779;52.168;20.878;2024-01-30T04:19:38;34.90;;;11.80;;
50681;SDS011;36779;52.168;20.878;2024-01-30T04:22:11;45.10;;;13.70;;
50681;SDS011;36779;52.168;20.878;2024-01-30T04:24:43;38.00;;;13.20;;
50681;SDS011;36779;52.168;20.878;2024-01-30T04:27:16;47.30;;;15.40;;
50681;SDS011;36779;52.168;20.878;2024-01-30T04:29:49;41.40;;;14.40;;
50681;SDS011;36779;52.168;20.878;2024-01-30T04:32:23;39.30;;;14.40;;
50681;SDS011;36779;52.168;20.878;2024-01-30T04:34:55;54.20;;;16.30;;
50681;SDS011;36779;52.168;20.878;2024-01-30T04:37:27;45.30;;;15.40;;
50681;SDS011;36779;52.168;20.878;2024-01-30T04:39:59;45.30;;;14.40;;
50681;SDS011;36779;52.168;20.878;2024-01-30T04:42:33;49.10;;;16.20;;
50681;SDS011;36779;52.168;20.878;2024-01-30T04:45:07;47.50;;;15.40;;
50681;SDS011;36779;52.168;20.878;2024-01-30T04:47:48;39.70;;;14.20;;
50681;SDS011;36779;52.168;20.878;2024-01-30T04:50:22;35.10;;;12.90;;
50681;SDS011;36779;52.168;20.878;2024-01-30T04:52:56;34.10;;;12.30;;
50681;SDS011;36779;52.168;20.878;2024-01-30T04:55:28;34.30;;;12.20;;
50681;SDS011;36779;52.168;20.878;2024-01-30T04:58:01;41.90;;;12.40;;
50681;SDS011;36779;52.168;20.878;2024-01-30T05:00:33;40.20;;;13.10;;
50681;SDS011;36779;52.168;20.878;2024-01-30T05:03:06;40.50;;;13.60;;
50681;SDS011;36779;52.168;20.878;2024-01-30T05:05:38;38.80;;;12.70;;
50681;SDS011;36779;52.168;20.878;2024-01-30T05:08:11;39.90;;;12.90;;
50681;SDS011;36779;52.168;20.878;2024-01-30T05:10:46;39.50;;;13.10;;
50681;SDS011;36779;52.168;20.878;2024-01-30T05:13:19;33.80;;;12.30;;
50681;SDS011;36779;52.168;20.878;2024-01-30T05:15:57;33.80;;;12.50;;
50681;SDS011;36779;52.168;20.878;2024-01-30T05:18:36;34.00;;;13.20;;
50681;SDS011;36779;52.168;20.878;2024-01-30T05:21:08;34.90;;;10.80;;
50681;SDS011;36779;52.168;20.878;2024-01-30T05:23:40;37.10;;;11.40;;
50681;SDS011;36779;52.168;20.878;2024-01-30T05:26:12;33.70;;;11.90;;
50681;SDS011;36779;52.168;20.878;2024-01-30T05:28:44;35.80;;;11.90;;
50681;SDS011;36779;52.168;20.878;2024-01-30T05:31:17;37.20;;;12.20;;
50681;SDS011;36779;52.168;20.878;2024-01-30T05:33:50;33.80;;;12.50;;
50681;SDS011;36779;52.168;20.878;2024-01-30T05:36:22;36.70;;;14.40;;
50681;SDS011;36779;52.168;20.878;2024-01-30T05:38:55;45.10;;;14.50;;
50681;SDS011;36779;52.168;20.878;2024-01-30T05:41:27;41.80;;;14.30;;
50681;SDS011;36779;52.168;20.878;2024-01-30T05:44:05;44.50;;;13.50;;
50681;SDS011;36779;52.168;20.878;2024-01-30T05:46:41;48.70;;;14.20;;
50681;SDS011;36779;52.168;20.878;2024-01-30T05:49:16;53.80;;;21.80;;
50681;SDS011;36779;52.168;20.878;2024-01-30T05:51:49;45.70;;;14.80;;
50681;SDS011;36779;52.168;20.878;2024-01-30T05:54:21;46.60;;;17.20;;
50681;SDS011;36779;52.168;20.878;2024-01-30T05:56:53;44.00;;;15.80;;
50681;SDS011;36779;52.168;20.878;2024-01-30T05:59:25;42.00;;;15.40;;
50681;SDS011;36779;52.168;20.878;2024-01-30T06:01:57;38.20;;;14.20;;
50681;SDS011;36779;52.168;20.878;2024-01-30T06:04:30;44.10;;;14.40;;
50681;SDS011;36779;52.168;20.878;2024-01-30T06:07:03;34.90;;;12.20;;
50681;SDS011;36779;52.168;20.878;2024-01-30T06:09:36;38.90;;;13.50;;
50681;SDS011;36779;52.168;20.878;2024-01-30T06:12:10;36.80;;;13.40;;
50681;SDS011;36779;52.168;20.878;2024-01-30T06:14:42;39.30;;;13.90;;
50681;SDS011;36779;52.168;20.878;2024-01-30T06:17:15;35.60;;;12.60;;
50681;SDS011;36779;52.168;20.878;2024-01-30T06:19:50;43.10;;;13.80;;
50681;SDS011;36779;52.168;20.878;2024-01-30T06:22:22;41.10;;;13.60;;
50681;SDS011;36779;52.168;20.878;2024-01-30T06:24:55;40.10;;;13.50;;
50681;SDS011;36779;52.168;20.878;2024-01-30T06:27:27;38.70;;;12.80;;
50681;SDS011;36779;52.168;20.878;2024-01-30T06:30:01;37.80;;;13.20;;
50681;SDS011;36779;52.168;20.878;2024-01-30T06:32:34;38.30;;;12.20;;
50681;SDS011;36779;52.168;20.878;2024-01-30T06:35:09;38.80;;;13.00;;
50681;SDS011;36779;52.168;20.878;2024-01-30T06:37:41;37.40;;;11.60;;
50681;SDS011;36779;52.168;20.878;2024-01-30T06:40:14;37.90;;;13.50;;
50681;SDS011;36779;52.168;20.878;2024-01-30T06:42:46;31.30;;;11.90;;
50681;SDS011;36779;52.168;20.878;2024-01-30T06:45:18;35.10;;;12.10;;
50681;SDS011;36779;52.168;20.878;2024-01-30T06:47:50;35.60;;;13.00;;
50681;SDS011;36779;52.168;20.878;2024-01-30T06:50:23;32.00;;;11.70;;
50681;SDS011;36779;52.168;20.878;2024-01-30T06:52:56;38.30;;;13.10;;
50681;SDS011;36779;52.168;20.878;2024-01-30T06:55:28;43.40;;;13.80;;
50681;SDS011;36779;52.168;20.878;2024-01-30T06:58:02;42.30;;;14.50;;
50681;SDS011;36779;52.168;20.878;2024-01-30T07:00:36;36.70;;;12.80;;
50681;SDS011;36779;52.168;20.878;2024-01-30T07:03:09;39.40;;;13.40;;
50681;SDS011;36779;52.168;20.878;2024-01-30T07:05:41;43.50;;;13.60;;
50681;SDS011;36779;52.168;20.878;2024-01-30T07:08:15;39.00;;;13.20;;
50681;SDS011;36779;52.168;20.878;2024-01-30T07:10:47;40.10;;;13.80;;
50681;SDS011;36779;52.168;20.878;2024-01-30T07:13:19;36.90;;;13.90;;
50681;SDS011;36779;52.168;20.878;2024-01-30T07:15:52;68.60;;;20.30;;
50681;SDS011;36779;52.168;20.878;2024-01-30T07:18:30;73.40;;;21.80;;
50681;SDS011;36779;52.168;20.878;2024-01-30T07:21:05;88.50;;;24.70;;
50681;SDS011;36779;52.168;20.878;2024-01-30T07:23:37;79.20;;;24.80;;
50681;SDS011;36779;52.168;20.878;2024-01-30T07:26:11;54.20;;;19.10;;
50681;SDS011;36779;52.168;20.878;2024-01-30T07:28:43;44.50;;;15.50;;
50681;SDS011;36779;52.168;20.878;2024-01-30T07:31:17;43.00;;;14.80;;
50681;SDS011;36779;52.168;20.878;2024-01-30T07:33:53;49.90;;;16.00;;
50681;SDS011;36779;52.168;20.878;2024-01-30T07:36:27;47.10;;;14.60;;
50681;SDS011;36779;52.168;20.878;2024-01-30T07:38:59;50.00;;;16.00;;
50681;SDS011;36779;52.168;20.878;2024-01-30T07:41:33;40.30;;;15.30;;
50681;SDS011;36779;52.168;20.878;2024-01-30T07:44:12;42.20;;;13.90;;
50681;SDS011;36779;52.168;20.878;2024-01-30T07:46:45;36.40;;;12.60;;
50681;SDS011;36779;52.168;20.878;2024-01-30T07:49:29;42.50;;;13.40;;
50681;SDS011;36779;52.168;20.878;2024-01-30T07:52:02;37.40;;;11.90;;
50681;SDS011;36779;52.168;20.878;2024-01-30T07:54:35;43.80;;;12.30;;
50681;SDS011;36779;52.168;20.878;2024-01-30T07:57:13;30.30;;;11.50;;
50681;SDS011;36779;52.168;20.878;2024-01-30T07:59:45;32.80;;;11.70;;
50681;SDS011;36779;52.168;20.878;2024-01-30T08:02:18;31.40;;;10.30;;
50681;SDS011;36779;52.168;20.878;2024-01-30T08:04:50;24.80;;;10.30;;
50681;SDS011;36779;52.168;20.878;2024-01-30T08:07:23;29.60;;;10.40;;
50681;SDS011;36779;52.168;20.878;2024-01-30T08:09:55;24.90;;;9.90;;
50681;SDS011;36779;52.168;20.878;2024-01-30T08:12:29;28.60;;;9.50;;
50681;SDS011;36779;52.168;20.878;2024-01-30T08:15:04;31.70;;;9.80;;
50681;SDS011;36779;52.168;20.878;2024-01-30T08:17:37;25.80;;;8.80;;
50681;SDS011;36779;52.168;20.878;2024-01-30T08:20:10;32.40;;;10.60;;
50681;SDS011;36779;52.168;20.878;2024-01-30T08:22:44;29.10;;;11.00;;
50681;SDS011;36779;52.168;20.878;2024-01-30T08:25:16;29.00;;;9.30;;
50681;SDS011;36779;52.168;20.878;2024-01-30T08:27:49;27.70;;;9.40;;
50681;SDS011;36779;52.168;20.878;2024-01-30T08:30:21;25.00;;;9.10;;
50681;SDS011;36779;52.168;20.878;2024-01-30T08:32:53;25.20;;;9.20;;
50681;SDS011;36779;52.168;20.878;2024-01-30T08:35:27;25.80;;;9.50;;
50681;SDS011;36779;52.168;20.878;2024-01-30T08:38:04;23.60;;;8.70;;
50681;SDS011;36779;52.168;20.878;2024-01-30T08:40:36;26.40;;;9.20;;
50681;SDS011;36779;52.168;20.878;2024-01-30T08:43:08;22.80;;;8.50;;
50681;SDS011;36779;52.168;20.878;2024-01-30T08:45:40;26.60;;;10.00;;
50681;SDS011;36779;52.168;20.878;2024-01-30T08:48:13;22.10;;;8.50;;
50681;SDS011;36779;52.168;20.878;2024-01-30T08:50:47;24.60;;;9.60;;
50681;SDS011;36779;52.168;20.878;2024-01-30T08:53:19;22.40;;;8.20;;
50681;SDS011;36779;52.168;20.878;2024-01-30T08:55:51;22.70;;;9.20;;
50681;SDS011;36779;52.168;20.878;2024-01-30T08:58:23;21.60;;;9.10;;
50681;SDS011;36779;52.168;20.878;2024-01-30T09:00:55;17.40;;;7.80;;
50681;SDS011;36779;52.168;20.878;2024-01-30T09:03:28;27.40;;;9.40;;
50681;SDS011;36779;52.168;20.878;2024-01-30T09:06:00;22.00;;;9.90;;
50681;SDS011;36779;52.168;20.878;2024-01-30T09:08:32;20.90;;;8.90;;
50681;SDS011;36779;52.168;20.878;2024-01-30T09:11:09;21.70;;;8.00;;
50681;SDS011;36779;52.168;20.878;2024-01-30T09:13:42;19.70;;;8.50;;
50681;SDS011;36779;52.168;20.878;2024-01-30T09:16:14;26.90;;;8.70;;
50681;SDS011;36779;52.168;20.878;2024-01-30T09:18:48;20.50;;;7.60;;
50681;SDS011;36779;52.168;20.878;2024-01-30T09:21:20;22.80;;;8.90;;
50681;SDS011;36779;52.168;20.878;2024-01-30T09:23:54;21.00;;;7.20;;
50681;SDS011;36779;52.168;20.878;2024-01-30T09:26:32;21.10;;;8.30;;
50681;SDS011;36779;52.168;20.878;2024-01-30T09:29:05;37.80;;;16.40;;
50681;SDS011;36779;52.168;20.878;2024-01-30T09:31:38;22.20;;;8.70;;
50681;SDS011;36779;52.168;20.878;2024-01-30T09:34:18;21.20;;;8.00;;
50681;SDS011;36779;52.168;20.878;2024-01-30T09:36:51;22.90;;;8.50;;
50681;SDS011;36779;52.168;20.878;2024-01-30T09:39:23;16.20;;;7.00;;
50681;SDS011;36779;52.168;20.878;2024-01-30T09:41:58;22.20;;;8.00;;
50681;SDS011;36779;52.168;20.878;2024-01-30T09:44:35;21.60;;;8.10;;
50681;SDS011;36779;52.168;20.878;2024-01-30T09:47:13;23.30;;;8.00;;
50681;SDS011;36779;52.168;20.878;2024-01-30T09:49:48;22.00;;;8.40;;
50681;SDS011;36779;52.168;20.878;2024-01-30T09:52:21;18.40;;;7.40;;
50681;SDS011;36779;52.168;20.878;2024-01-30T09:54:54;27.70;;;9.00;;
50681;SDS011;36779;52.168;20.878;2024-01-30T09:57:26;20.30;;;7.70;;
50681;SDS011;36779;52.168;20.878;2024-01-30T09:59:59;20.40;;;7.70;;
50681;SDS011;36779;52.168;20.878;2024-01-30T10:02:40;23.20;;;8.00;;
50681;SDS011;36779;52.168;20.878;2024-01-30T10:05:13;25.50;;;8.90;;
50681;SDS011;36779;52.168;20.878;2024-01-30T10:07:54;23.00;;;8.60;;
50681;SDS011;36779;52.168;20.878;2024-01-30T10:10:27;22.20;;;7.80;;
50681;SDS011;36779;52.168;20.878;2024-01-30T10:13:00;22.20;;;7.90;;
50681;SDS011;36779;52.168;20.878;2024-01-30T10:15:34;18.40;;;8.50;;
50681;SDS011;36779;52.168;20.878;2024-01-30T10:18:08;18.80;;;8.10;;
50681;SDS011;36779;52.168;20.878;2024-01-30T10:20:40;17.60;;;7.80;;
50681;SDS011;36779;52.168;20.878;2024-01-30T10:23:12;21.30;;;8.70;;
50681;SDS011;36779;52.168;20.878;2024-01-30T10:25:46;21.00;;;8.50;;
50681;SDS011;36779;52.168;20.878;2024-01-30T10:28:18;18.90;;;8.90;;
50681;SDS011;36779;52.168;20.878;2024-01-30T10:30:58;18.20;;;8.70;;
50681;SDS011;36779;52.168;20.878;2024-01-30T10:33:35;20.10;;;8.90;;
50681;SDS011;36779;52.168;20.878;2024-01-30T10:36:08;22.60;;;9.60;;
50681;SDS011;36779;52.168;20.878;2024-01-30T10:38:47;18.20;;;9.30;;
50681;SDS011;36779;52.168;20.878;2024-01-30T10:41:23;21.00;;;8.70;;
50681;SDS011;36779;52.168;20.878;2024-01-30T10:44:08;20.10;;;9.00;;
50681;SDS011;36779;52.168;20.878;2024-01-30T10:46:44;20.10;;;9.10;;
50681;SDS011;36779;52.168;20.878;2024-01-30T10:49:21;21.60;;;10.40;;
50681;SDS011;36779;52.168;20.878;2024-01-30T10:51:55;17.10;;;9.50;;
50681;SDS011;36779;52.168;20.878;2024-01-30T10:54:28;15.60;;;8.50;;
50681;SDS011;36779;52.168;20.878;2024-01-30T10:57:02;22.00;;;8.90;;
50681;SDS011;36779;52.168;20.878;2024-01-30T10:59:35;16.80;;;8.40;;
50681;SDS011;36779;52.168;20.878;2024-01-30T11:02:08;18.00;;;9.50;;
50681;SDS011;36779;52.168;20.878;2024-01-30T11:04:42;18.00;;;9.20;;
50681;SDS011;36779;52.168;20.878;2024-01-30T11:07:16;18.30;;;9.20;;
50681;SDS011;36779;52.168;20.878;2024-01-30T11:09:51;19.40;;;8.60;;
50681;SDS011;36779;52.168;20.878;2024-01-30T11:12:25;17.40;;;8.30;;
50681;SDS011;36779;52.168;20.878;2024-01-30T11:15:05;17.70;;;9.00;;
50681;SDS011;36779;52.168;20.878;2024-01-30T11:17:43;16.00;;;8.00;;
50681;SDS011;36779;52.168;20.878;2024-01-30T11:20:16;18.10;;;8.40;;
50681;SDS011;36779;52.168;20.878;2024-01-30T11:22:51;19.60;;;8.50;;
50681;SDS011;36779;52.168;20.878;2024-01-30T11:25:26;17.60;;;8.10;;
50681;SDS011;36779;52.168;20.878;2024-01-30T11:28:00;15.60;;;7.50;;
50681;SDS011;36779;52.168;20.878;2024-01-30T11:30:35;16.00;;;7.90;;
50681;SDS011;36779;52.168;20.878;2024-01-30T11:33:08;19.10;;;8.10;;
50681;SDS011;36779;52.168;20.878;2024-01-30T11:35:43;19.30;;;7.60;;
50681;SDS011;36779;52.168;20.878;2024-01-30T11:38:16;17.80;;;7.70;;
50681;SDS011;36779;52.168;20.878;2024-01-30T11:40:48;18.70;;;7.70;;
50681;SDS011;36779;52.168;20.878;2024-01-30T11:43:22;18.10;;;8.50;;
50681;SDS011;36779;52.168;20.878;2024-01-30T11:45:54;16.90;;;9.10;;
50681;SDS011;36779;52.168;20.878;2024-01-30T11:48:27;18.50;;;8.50;;
50681;SDS011;36779;52.168;20.878;2024-01-30T11:50:59;20.50;;;8.30;;
50681;SDS011;36779;52.168;20.878;2024-01-30T11:53:32;19.90;;;8.40;;
50681;SDS011;36779;52.168;20.878;2024-01-30T11:56:07;19.20;;;10.60;;
50681;SDS011;36779;52.168;20.878;2024-01-30T11:58:39;25.20;;;9.90;;
50681;SDS011;36779;52.168;20.878;2024-01-30T12:01:14;17.90;;;8.00;;
50681;SDS011;36779;52.168;20.878;2024-01-30T12:03:50;18.50;;;8.50;;
50681;SDS011;36779;52.168;20.878;2024-01-30T12:06:22;17.70;;;7.40;;
50681;SDS011;36779;52.168;20.878;2024-01-30T12:09:00;18.70;;;8.60;;
50681;SDS011;36779;52.168;20.878;2024-01-30T12:11:34;19.90;;;8.10;;
50681;SDS011;36779;52.168;20.878;2024-01-30T12:14:16;24.20;;;8.40;;
50681;SDS011;36779;52.168;20.878;2024-01-30T12:16:49;21.60;;;8.60;;
50681;SDS011;36779;52.168;20.878;2024-01-30T12:19:24;19.90;;;8.40;;
50681;SDS011;36779;52.168;20.878;2024-01-30T12:21:58;21.10;;;8.20;;
50681;SDS011;36779;52.168;20.878;2024-01-30T12:24:30;15.10;;;7.40;;
50681;SDS011;36779;52.168;20.878;2024-01-30T12:27:02;24.10;;;8.00;;
50681;SDS011;36779;52.168;20.878;2024-01-30T12:29:35;17.10;;;7.60;;
50681;SDS011;36779;52.168;20.878;2024-01-30T12:32:09;19.00;;;8.50;;
50681;SDS011;36779;52.168;20.878;2024-01-30T12:34:47;16.00;;;8.00;;
50681;SDS011;36779;52.168;20.878;2024-01-30T12:37:29;19.10;;;7.40;;
50681;SDS011;36779;52.168;20.878;2024-01-30T12:40:02;18.20;;;6.80;;
50681;SDS011;36779;52.168;20.878;2024-01-30T12:42:36;16.70;;;7.00;;
50681;SDS011;36779;52.168;20.878;2024-01-30T12:45:08;19.10;;;7.60;;
50681;SDS011;36779;52.168;20.878;2024-01-30T12:47:41;18.00;;;7.80;;
50681;SDS011;36779;52.168;20.878;2024-01-30T12:50:13;16.20;;;6.20;;
50681;SDS011;36779;52.168;20.878;2024-01-30T12:52:47;19.40;;;8.10;;
50681;SDS011;36779;52.168;20.878;2024-01-30T12:55:23;15.90;;;7.00;;
50681;SDS011;36779;52.168;20.878;2024-01-30T12:57:57;20.10;;;7.90;;
50681;SDS011;36779;52.168;20.878;2024-01-30T13:00:30;18.20;;;7.70;;
50681;SDS011;36779;52.168;20.878;2024-01-30T13:03:04;16.90;;;8.20;;
50681;SDS011;36779;52.168;20.878;2024-01-30T13:05:37;16.90;;;8.10;;
50681;SDS011;36779;52.168;20.878;2024-01-30T13:08:09;20.20;;;8.70;;
50681;SDS011;36779;52.168;20.878;2024-01-30T13:10:42;15.90;;;7.50;;
50681;SDS011;36779;52.168;20.878;2024-01-30T13:13:18;17.80;;;7.80;;
50681;SDS011;36779;52.168;20.878;2024-01-30T13:15:50;19.70;;;7.50;;
50681;SDS011;36779;52.168;20.878;2024-01-30T13:18:26;21.20;;;7.70;;
50681;SDS011;36779;52.168;20.878;2024-01-30T13:20:58;19.60;;;7.90;;
50681;SDS011;36779;52.168;20.878;2024-01-30T13:23:35;15.70;;;6.30;;
50681;SDS011;36779;52.168;20.878;2024-01-30T13:26:10;20.00;;;8.40;;
50681;SDS011;36779;52.168;20.878;2024-01-30T13:28:45;18.90;;;6.90;;
50681;SDS011;36779;52.168;20.878;2024-01-30T13:31:20;17.50;;;7.60;;
50681;SDS011;36779;52.168;20.878;2024-01-30T13:33:53;19.20;;;8.20;;
50681;SDS011;36779;52.168;20.878;2024-01-30T13:36:26;14.60;;;7.30;;
50681;SDS011;36779;52.168;20.878;2024-01-30T13:38:58;17.70;;;8.00;;
50681;SDS011;36779;52.168;20.878;2024-01-30T13:41:32;19.60;;;8.70;;
50681;SDS011;36779;52.168;20.878;2024-01-30T13:44:09;19.00;;;8.70;;
50681;SDS011;36779;52.168;20.878;2024-01-30T13:46:45;15.20;;;7.30;;
50681;SDS011;36779;52.168;20.878;2024-01-30T13:49:18;19.20;;;8.00;;
50681;SDS011;36779;52.168;20.878;2024-01-30T13:51:53;19.70;;;8.00;;
50681;SDS011;36779;52.168;20.878;2024-01-30T13:54:26;20.10;;;7.30;;
50681;SDS011;36779;52.168;20.878;2024-01-30T13:57:00;17.10;;;7.00;;
50681;SDS011;36779;52.168;20.878;2024-01-30T13:59:33;15.20;;;7.30;;
50681;SDS011;36779;52.168;20.878;2024-01-30T14:02:06;18.10;;;7.60;;
50681;SDS011;36779;52.168;20.878;2024-01-30T14:04:39;18.00;;;7.20;;
50681;SDS011;36779;52.168;20.878;2024-01-30T14:07:13;19.10;;;7.70;;
50681;SDS011;36779;52.168;20.878;2024-01-30T14:09:48;20.60;;;7.40;;
50681;SDS011;36779;52.168;20.878;2024-01-30T14:12:25;18.70;;;7.40;;
50681;SDS011;36779;52.168;20.878;2024-01-30T14:14:58;16.00;;;7.90;;
50681;SDS011;36779;52.168;20.878;2024-01-30T14:17:35;22.40;;;7.20;;
50681;SDS011;36779;52.168;20.878;2024-01-30T14:20:08;20.00;;;7.30;;
50681;SDS011;36779;52.168;20.878;2024-01-30T14:22:41;18.90;;;7.90;;
50681;SDS011;36779;52.168;20.878;2024-01-30T14:25:13;17.20;;;7.40;;
50681;SDS011;36779;52.168;20.878;2024-01-30T14:27:47;17.90;;;7.80;;
50681;SDS011;36779;52.168;20.878;2024-01-30T14:30:19;18.70;;;7.10;;
50681;SDS011;36779;52.168;20.878;2024-01-30T14:32:52;20.40;;;7.70;;
50681;SDS011;36779;52.168;20.878;2024-01-30T14:35:27;19.80;;;7.20;;
50681;SDS011;36779;52.168;20.878;2024-01-30T14:38:03;14.60;;;6.40;;
50681;SDS011;36779;52.168;20.878;2024-01-30T14:40:37;14.40;;;7.00;;
50681;SDS011;36779;52.168;20.878;2024-01-30T14:43:10;19.30;;;6.90;;
50681;SDS011;36779;52.168;20.878;2024-01-30T14:45:46;15.70;;;6.20;;
50681;SDS011;36779;52.168;20.878;2024-01-30T14:48:24;15.40;;;6.60;;
50681;SDS011;36779;52.168;20.878;2024-01-30T14:51:43;16.30;;;6.30;;